createdAt,value
2023-03-20T00:01:53.603Z,98763.00
2023-03-20T00:04:20.179Z,98768.00
2023-03-20T00:06:46.788Z,98771.00
2023-03-20T00:09:13.655Z,98771.00
2023-03-20T00:11:48.290Z,98768.00
2023-03-20T00:14:16.852Z,98772.00
2023-03-20T00:16:45.553Z,98764.00
2023-03-20T00:19:29.432Z,98772.00
2023-03-20T00:21:57.094Z,98769.00
2023-03-20T00:24:24.680Z,98785.00
2023-03-20T00:26:52.605Z,98779.00
2023-03-20T00:29:26.108Z,98785.00
2023-03-20T00:31:54.256Z,98787.00
2023-03-20T00:34:23.721Z,98775.00
2023-03-20T00:36:51.281Z,98783.00
2023-03-20T00:39:17.788Z,98785.00
2023-03-20T00:41:49.966Z,98787.00
2023-03-20T00:44:35.101Z,98786.00
2023-03-20T00:47:05.599Z,98788.00
2023-03-20T00:49:35.807Z,98783.00
2023-03-20T00:52:04.603Z,98792.00
2023-03-20T00:54:31.564Z,98792.00
2023-03-20T00:57:06.857Z,98782.00
2023-03-20T00:59:37.345Z,98793.00
2023-03-20T01:02:04.273Z,98794.00
2023-03-20T01:04:37.759Z,98792.00
2023-03-20T01:07:06.187Z,98780.00
2023-03-20T01:09:32.872Z,98792.00
2023-03-20T01:12:03.729Z,98800.00
2023-03-20T01:14:30.361Z,98794.00
2023-03-20T01:16:57.186Z,98799.00
2023-03-20T01:19:23.721Z,98794.00
2023-03-20T01:21:50.709Z,98802.00
2023-03-20T01:24:17.520Z,98806.00
2023-03-20T01:26:45.200Z,98815.00
2023-03-20T01:29:22.667Z,98803.00
2023-03-20T01:31:50.649Z,98815.00
2023-03-20T01:34:19.459Z,98820.00
2023-03-20T01:36:50.886Z,98823.00
2023-03-20T01:39:19.102Z,98822.00
2023-03-20T01:41:47.419Z,98815.00
2023-03-20T01:44:22.629Z,98811.00
2023-03-20T01:46:55.362Z,98812.00
2023-03-20T01:49:21.977Z,98810.00
2023-03-20T01:51:51.782Z,98805.00
2023-03-20T01:54:39.448Z,98810.00
2023-03-20T01:57:14.577Z,98805.00
2023-03-20T01:59:51.212Z,98813.00
2023-03-20T02:02:23.360Z,98820.00
2023-03-20T02:04:55.485Z,98817.00
2023-03-20T02:07:23.437Z,98824.00
2023-03-20T02:09:59.918Z,98826.00
2023-03-20T02:12:49.573Z,98818.00
2023-03-20T02:15:28.011Z,98811.00
2023-03-20T02:18:13.282Z,98820.00
2023-03-20T02:21:09.228Z,98815.00
2023-03-20T02:24:16.160Z,98820.00
2023-03-20T02:26:58.155Z,98830.00
2023-03-20T02:30:01.609Z,98826.00
2023-03-20T02:32:51.644Z,98821.00
2023-03-20T02:35:27.511Z,98826.00
2023-03-20T02:37:56.909Z,98830.00
2023-03-20T02:40:53.898Z,98828.00
2023-03-20T02:44:00.262Z,98833.00
2023-03-20T02:47:02.985Z,98833.00
2023-03-20T02:49:46.224Z,98830.00
2023-03-20T02:52:17.334Z,98827.00
2023-03-20T02:54:54.594Z,98827.00
2023-03-20T02:57:27.233Z,98831.00
2023-03-20T03:00:10.327Z,98815.00
2023-03-20T03:02:47.326Z,98824.00
2023-03-20T03:05:19.820Z,98816.00
2023-03-20T03:07:50.844Z,98806.00
2023-03-20T03:10:34.359Z,98807.00
2023-03-20T03:13:03.504Z,98797.00
2023-03-20T03:15:38.837Z,98800.00
2023-03-20T03:18:07.830Z,98804.00
2023-03-20T03:20:38.222Z,98797.00
2023-03-20T03:23:06.727Z,98791.00
2023-03-20T03:25:38.027Z,98801.00
2023-03-20T03:28:49.027Z,98800.00
2023-03-20T03:31:18.152Z,98801.00
2023-03-20T03:33:48.241Z,98809.00
2023-03-20T03:36:53.933Z,98804.00
2023-03-20T03:39:41.642Z,98804.00
2023-03-20T03:42:27.948Z,98805.00
2023-03-20T03:45:00.455Z,98813.00
2023-03-20T03:47:41.257Z,98822.00
2023-03-20T03:50:34.190Z,98826.00
2023-03-20T03:53:07.158Z,98821.00
2023-03-20T03:55:42.527Z,98818.00
2023-03-20T03:58:17.581Z,98826.00
2023-03-20T04:00:47.954Z,98828.00
2023-03-20T04:03:15.423Z,98829.00
2023-03-20T04:05:44.912Z,98826.00
2023-03-20T04:08:11.569Z,98822.00
2023-03-20T04:10:40.961Z,98824.00
2023-03-20T04:13:08.631Z,98828.00
2023-03-20T04:15:35.919Z,98823.00
2023-03-20T04:18:05.558Z,98820.00
2023-03-20T04:20:32.745Z,98821.00
2023-03-20T04:22:59.485Z,98817.00
2023-03-20T04:25:26.714Z,98824.00
2023-03-20T04:27:55.681Z,98829.00
2023-03-20T04:30:44.208Z,98823.00
2023-03-20T04:33:16.537Z,98831.00
2023-03-20T04:35:56.787Z,98829.00
2023-03-20T04:38:24.061Z,98836.00
2023-03-20T04:40:52.406Z,98824.00
2023-03-20T04:43:19.959Z,98828.00
2023-03-20T04:45:46.707Z,98830.00
2023-03-20T04:48:13.511Z,98826.00
2023-03-20T04:50:40.536Z,98827.00
2023-03-20T04:53:07.418Z,98831.00
2023-03-20T04:55:34.436Z,98830.00
2023-03-20T04:58:01.171Z,98828.00
2023-03-20T05:00:29.097Z,98826.00
2023-03-20T05:02:55.931Z,98834.00
2023-03-20T05:05:23.773Z,98832.00
2023-03-20T05:07:51.808Z,98843.00
2023-03-20T05:10:27.772Z,98839.00
2023-03-20T05:13:02.965Z,98832.00
2023-03-20T05:15:52.953Z,98837.00
2023-03-20T05:18:27.746Z,98835.00
2023-03-20T05:21:26.586Z,98840.00
2023-03-20T05:24:11.776Z,98841.00
2023-03-20T05:26:50.375Z,98836.00
2023-03-20T05:29:30.484Z,98835.00
2023-03-20T05:32:17.529Z,98845.00
2023-03-20T05:35:09.161Z,98839.00
2023-03-20T05:37:54.026Z,98847.00
2023-03-20T05:40:29.238Z,98857.00
2023-03-20T05:43:16.714Z,98857.00
2023-03-20T05:46:01.974Z,98851.00
2023-03-20T05:48:47.410Z,98856.00
2023-03-20T05:51:14.033Z,98867.00
2023-03-20T05:54:12.947Z,98868.00
2023-03-20T05:57:01.324Z,98879.00
2023-03-20T05:59:34.933Z,98879.00
2023-03-20T06:02:13.449Z,98883.00
2023-03-20T06:04:47.253Z,98877.00
2023-03-20T06:07:26.049Z,98886.00
2023-03-20T06:10:01.981Z,98885.00
2023-03-20T06:12:29.704Z,98888.00
2023-03-20T06:14:56.320Z,98885.00
2023-03-20T06:17:23.504Z,98879.00
2023-03-20T06:19:55.934Z,98882.00
2023-03-20T06:22:22.812Z,98885.00
2023-03-20T06:24:49.628Z,98885.00
2023-03-20T06:27:16.998Z,98884.00
2023-03-20T06:29:47.610Z,98880.00
2023-03-20T06:32:23.268Z,98894.00
2023-03-20T06:34:51.994Z,98885.00
2023-03-20T06:37:19.771Z,98892.00
2023-03-20T06:39:46.484Z,98900.00
2023-03-20T06:42:16.117Z,98885.00
2023-03-20T06:44:43.973Z,98891.00
2023-03-20T06:47:15.902Z,98894.00
2023-03-20T06:49:45.624Z,98893.00
2023-03-20T06:52:16.846Z,98892.00
2023-03-20T06:54:45.743Z,98888.00
2023-03-20T06:57:15.290Z,98895.00
2023-03-20T06:59:43.216Z,98884.00
2023-03-20T07:02:11.167Z,98884.00
2023-03-20T07:04:37.993Z,98887.00
2023-03-20T07:07:04.969Z,98886.00
2023-03-20T07:09:34.512Z,98887.00
2023-03-20T07:12:01.141Z,98879.00
2023-03-20T07:14:30.326Z,98883.00
2023-03-20T07:17:01.400Z,98892.00
2023-03-20T07:19:28.130Z,98887.00
2023-03-20T07:22:03.679Z,98889.00
2023-03-20T07:24:37.237Z,98901.00
2023-03-20T07:27:03.978Z,98899.00
2023-03-20T07:29:32.994Z,98904.00
2023-03-20T07:32:02.215Z,98916.00
2023-03-20T07:34:33.334Z,98915.00
2023-03-20T07:37:00.680Z,98900.00
2023-03-20T07:39:28.285Z,98906.00
2023-03-20T07:42:14.919Z,98905.00
2023-03-20T07:44:45.286Z,98907.00
2023-03-20T07:47:12.282Z,98913.00
2023-03-20T07:49:38.853Z,98908.00
2023-03-20T07:52:07.854Z,98916.00
2023-03-20T07:54:34.746Z,98922.00
2023-03-20T07:57:01.680Z,98925.00
2023-03-20T07:59:28.230Z,98929.00
2023-03-20T08:01:54.812Z,98929.00
2023-03-20T08:04:23.043Z,98936.00
2023-03-20T08:06:50.160Z,98925.00
2023-03-20T08:09:17.567Z,98936.00
2023-03-20T08:11:44.203Z,98932.00
2023-03-20T08:14:11.211Z,98945.00
2023-03-20T08:16:37.903Z,98935.00
2023-03-20T08:19:06.147Z,98932.00
2023-03-20T08:21:33.204Z,98934.00
2023-03-20T08:23:59.861Z,98931.00
2023-03-20T08:26:26.512Z,98948.00
2023-03-20T08:28:53.291Z,98948.00
2023-03-20T08:31:20.271Z,98949.00
2023-03-20T08:33:47.495Z,98944.00
2023-03-20T08:36:15.938Z,98961.00
2023-03-20T08:38:43.082Z,98960.00
2023-03-20T08:41:09.648Z,98963.00
2023-03-20T08:43:36.441Z,98959.00
2023-03-20T08:46:03.564Z,98962.00
2023-03-20T08:48:30.194Z,98966.00
2023-03-20T08:50:56.830Z,98955.00
2023-03-20T08:53:23.348Z,98961.00
2023-03-20T08:55:51.673Z,98968.00
2023-03-20T08:58:19.505Z,98967.00
2023-03-20T09:00:46.048Z,98964.00
2023-03-20T09:03:17.564Z,98968.00
2023-03-20T09:05:46.036Z,98960.00
2023-03-20T09:08:13.403Z,98955.00
2023-03-20T09:10:40.771Z,98968.00
2023-03-20T09:13:25.862Z,98968.00
2023-03-20T09:15:53.510Z,98965.00
2023-03-20T09:18:21.309Z,98965.00
2023-03-20T09:20:48.595Z,98964.00
2023-03-20T09:23:15.273Z,98972.00
2023-03-20T09:25:41.831Z,98969.00
2023-03-20T09:28:08.342Z,98965.00
2023-03-20T09:30:35.264Z,98966.00
2023-03-20T09:33:02.068Z,98970.00
2023-03-20T09:35:28.659Z,98982.00
2023-03-20T09:37:55.215Z,98979.00
2023-03-20T09:40:30.591Z,98979.00
2023-03-20T09:43:15.752Z,98982.00
2023-03-20T09:45:51.560Z,98987.00
2023-03-20T09:48:41.180Z,98987.00
2023-03-20T09:51:27.764Z,98979.00
2023-03-20T09:54:01.259Z,98980.00
2023-03-20T09:56:30.960Z,98981.00
2023-03-20T09:59:01.530Z,98983.00
2023-03-20T10:01:40.777Z,98979.00
2023-03-20T10:04:09.926Z,98974.00
2023-03-20T10:06:36.960Z,98974.00
2023-03-20T10:09:15.229Z,98981.00
2023-03-20T10:12:04.758Z,98978.00
2023-03-20T10:14:44.798Z,98977.00
2023-03-20T10:17:14.087Z,98968.00
2023-03-20T10:19:57.986Z,98970.00
2023-03-20T10:22:29.219Z,98976.00
2023-03-20T10:25:03.205Z,98976.00
2023-03-20T10:27:34.939Z,98973.00
2023-03-20T10:30:28.447Z,98969.00
2023-03-20T10:33:07.801Z,98970.00
2023-03-20T10:35:46.622Z,98970.00
2023-03-20T10:38:25.744Z,98970.00
2023-03-20T10:40:55.337Z,98974.00
2023-03-20T10:43:26.115Z,98969.00
2023-03-20T10:45:57.418Z,98980.00
2023-03-20T10:48:29.189Z,98978.00
2023-03-20T10:50:59.002Z,98966.00
2023-03-20T10:53:37.350Z,98968.00
2023-03-20T10:56:08.961Z,98969.00
2023-03-20T10:58:40.517Z,98974.00
2023-03-20T11:01:07.821Z,98976.00
2023-03-20T11:03:38.846Z,98958.00
2023-03-20T11:06:19.161Z,98971.00
2023-03-20T11:08:52.082Z,98962.00
2023-03-20T11:11:36.929Z,98966.00
2023-03-20T11:14:15.927Z,98966.00
2023-03-20T11:16:42.489Z,98963.00
2023-03-20T11:19:11.682Z,98963.00
2023-03-20T11:21:56.197Z,98966.00
2023-03-20T11:24:42.735Z,98961.00
2023-03-20T11:27:16.049Z,98963.00
2023-03-20T11:29:45.842Z,98954.00
2023-03-20T11:32:31.447Z,98967.00
2023-03-20T11:35:11.114Z,98963.00
2023-03-20T11:37:45.147Z,98967.00
2023-03-20T11:40:23.980Z,98958.00
2023-03-20T11:42:57.101Z,98955.00
2023-03-20T11:45:25.538Z,98962.00
2023-03-20T11:47:55.482Z,98964.00
2023-03-20T11:50:43.866Z,98950.00
2023-03-20T11:53:41.749Z,98948.00
2023-03-20T11:56:14.883Z,98951.00
2023-03-20T11:58:58.172Z,98960.00
2023-03-20T12:01:26.216Z,98964.00
2023-03-20T12:03:55.997Z,98956.00
2023-03-20T12:06:25.924Z,98951.00
2023-03-20T12:08:56.742Z,98947.00
2023-03-20T12:11:42.676Z,98955.00
2023-03-20T12:14:54.251Z,98952.00
2023-03-20T12:17:35.205Z,98938.00
2023-03-20T12:20:11.339Z,98935.00
2023-03-20T12:23:03.966Z,98932.00
2023-03-20T12:25:43.697Z,98930.00
2023-03-20T12:28:45.833Z,98929.00
2023-03-20T12:31:42.115Z,98925.00
2023-03-20T12:34:25.109Z,98917.00
2023-03-20T12:36:57.588Z,98922.00
2023-03-20T12:39:29.495Z,98921.00
2023-03-20T12:42:09.730Z,98915.00
2023-03-20T12:44:45.279Z,98920.00
2023-03-20T12:47:36.066Z,98916.00
2023-03-20T12:50:17.771Z,98914.00
2023-03-20T12:53:02.595Z,98921.00
2023-03-20T12:55:52.433Z,98911.00
2023-03-20T12:58:24.693Z,98910.00
2023-03-20T13:01:03.929Z,98916.00
2023-03-20T13:03:44.314Z,98912.00
2023-03-20T13:06:32.314Z,98906.00
2023-03-20T13:09:32.241Z,98904.00
2023-03-20T13:12:01.681Z,98910.00
2023-03-20T13:15:07.366Z,98910.00
2023-03-20T13:17:59.748Z,98896.00
2023-03-20T13:20:56.301Z,98896.00
2023-03-20T13:23:41.116Z,98890.00
2023-03-20T13:26:21.656Z,98897.00
2023-03-20T13:29:03.331Z,98895.00
2023-03-20T13:31:46.346Z,98899.00
2023-03-20T13:34:38.135Z,98887.00
2023-03-20T13:37:23.815Z,98890.00
2023-03-20T13:40:16.798Z,98884.00
2023-03-20T13:42:47.630Z,98884.00
2023-03-20T13:45:20.228Z,98886.00
2023-03-20T13:47:48.017Z,98876.00
2023-03-20T13:50:49.795Z,98872.00
2023-03-20T13:53:28.764Z,98875.00
2023-03-20T13:56:20.512Z,98871.00
2023-03-20T13:59:02.908Z,98855.00
2023-03-20T14:01:58.865Z,98854.00
2023-03-20T14:04:27.597Z,98860.00
2023-03-20T14:06:56.808Z,98861.00
2023-03-20T14:09:27.826Z,98862.00
2023-03-20T14:11:56.686Z,98869.00
2023-03-20T14:14:30.570Z,98865.00
2023-03-20T14:17:02.198Z,98856.00
2023-03-20T14:19:29.618Z,98858.00
2023-03-20T14:21:56.545Z,98862.00
2023-03-20T14:24:25.062Z,98869.00
2023-03-20T14:26:57.698Z,98864.00
2023-03-20T14:29:30.357Z,98866.00
2023-03-20T14:32:31.642Z,98868.00
2023-03-20T14:35:25.976Z,98875.00
2023-03-20T14:38:01.563Z,98867.00
2023-03-20T14:40:31.435Z,98870.00
2023-03-20T14:43:13.069Z,98873.00
2023-03-20T14:45:53.947Z,98869.00
2023-03-20T14:48:44.463Z,98865.00
2023-03-20T14:51:20.386Z,98868.00
2023-03-20T14:53:58.659Z,98862.00
2023-03-20T14:56:32.753Z,98859.00
2023-03-20T14:59:04.298Z,98861.00
2023-03-20T15:01:40.346Z,98861.00
2023-03-20T15:04:29.099Z,98856.00
2023-03-20T15:07:16.239Z,98857.00
2023-03-20T15:09:49.211Z,98851.00
2023-03-20T15:12:25.261Z,98852.00
2023-03-20T15:14:59.338Z,98846.00
2023-03-20T15:17:34.202Z,98861.00
2023-03-20T15:20:04.437Z,98845.00
2023-03-20T15:22:31.078Z,98854.00
2023-03-20T15:24:57.774Z,98844.00
2023-03-20T15:27:29.446Z,98850.00
2023-03-20T15:29:57.523Z,98848.00
2023-03-20T15:32:24.778Z,98854.00
2023-03-20T15:34:51.849Z,98856.00
2023-03-20T15:37:23.425Z,98856.00
2023-03-20T15:39:53.820Z,98866.00
2023-03-20T15:42:22.074Z,98864.00
2023-03-20T15:44:50.079Z,98866.00
2023-03-20T15:47:24.545Z,98873.00
2023-03-20T15:49:56.754Z,98866.00
2023-03-20T15:52:52.851Z,98872.00
2023-03-20T15:55:22.687Z,98865.00
2023-03-20T15:57:50.488Z,98860.00
2023-03-20T16:00:29.813Z,98858.00
2023-03-20T16:02:57.346Z,98842.00
2023-03-20T16:05:27.487Z,98856.00
2023-03-20T16:07:54.536Z,98840.00
2023-03-20T16:10:25.394Z,98844.00
2023-03-20T16:12:54.636Z,98856.00
2023-03-20T16:15:25.535Z,98853.00
2023-03-20T16:17:55.925Z,98857.00
2023-03-20T16:20:24.856Z,98851.00
2023-03-20T16:22:55.340Z,98846.00
2023-03-20T16:25:22.079Z,98857.00
2023-03-20T16:27:52.746Z,98846.00
2023-03-20T16:30:30.715Z,98854.00
2023-03-20T16:33:06.115Z,98851.00
2023-03-20T16:35:39.556Z,98856.00
2023-03-20T16:38:24.298Z,98852.00
2023-03-20T16:40:55.575Z,98858.00
2023-03-20T16:43:30.584Z,98852.00
2023-03-20T16:46:03.391Z,98844.00
2023-03-20T16:48:35.680Z,98856.00
2023-03-20T16:51:08.147Z,98855.00
2023-03-20T16:53:41.520Z,98852.00
2023-03-20T16:56:26.227Z,98869.00
2023-03-20T16:58:56.411Z,98868.00
2023-03-20T17:01:24.955Z,98864.00
2023-03-20T17:03:56.740Z,98869.00
2023-03-20T17:06:23.292Z,98858.00
2023-03-20T17:09:01.088Z,98858.00
2023-03-20T17:11:36.860Z,98853.00
2023-03-20T17:14:04.377Z,98850.00
2023-03-20T17:16:32.888Z,98846.00
2023-03-20T17:19:13.179Z,98848.00
2023-03-20T17:21:39.805Z,98844.00
2023-03-20T17:24:06.663Z,98856.00
2023-03-20T17:26:33.416Z,98853.00
2023-03-20T17:29:00.070Z,98849.00
2023-03-20T17:31:26.823Z,98851.00
2023-03-20T17:33:53.396Z,98849.00
2023-03-20T17:36:29.043Z,98862.00
2023-03-20T17:38:57.211Z,98852.00
2023-03-20T17:41:24.819Z,98847.00
2023-03-20T17:43:51.936Z,98832.00
2023-03-20T17:46:19.626Z,98847.00
2023-03-20T17:48:47.975Z,98842.00
2023-03-20T17:51:14.709Z,98844.00
2023-03-20T17:53:41.351Z,98837.00
2023-03-20T17:56:13.716Z,98839.00
2023-03-20T17:58:41.391Z,98843.00
2023-03-20T18:01:09.570Z,98836.00
2023-03-20T18:03:36.414Z,98840.00
2023-03-20T18:06:04.547Z,98834.00
2023-03-20T18:08:31.566Z,98840.00
2023-03-20T18:10:58.476Z,98831.00
2023-03-20T18:13:26.952Z,98833.00
2023-03-20T18:15:57.024Z,98837.00
2023-03-20T18:18:24.285Z,98838.00
2023-03-20T18:20:52.339Z,98839.00
2023-03-20T18:23:18.925Z,98834.00
2023-03-20T18:25:45.639Z,98842.00
2023-03-20T18:28:18.473Z,98843.00
2023-03-20T18:30:45.155Z,98840.00
2023-03-20T18:33:11.906Z,98842.00
2023-03-20T18:35:38.871Z,98841.00
2023-03-20T18:38:14.595Z,98843.00
2023-03-20T18:40:43.080Z,98841.00
2023-03-20T18:43:10.830Z,98846.00
2023-03-20T18:45:39.158Z,98838.00
2023-03-20T18:48:07.003Z,98851.00
2023-03-20T18:50:37.811Z,98841.00
2023-03-20T18:53:06.614Z,98847.00
2023-03-20T18:55:34.138Z,98846.00
2023-03-20T18:58:04.223Z,98845.00
2023-03-20T19:00:35.763Z,98852.00
2023-03-20T19:03:02.558Z,98848.00
2023-03-20T19:05:29.632Z,98839.00
2023-03-20T19:07:56.858Z,98843.00
2023-03-20T19:10:30.379Z,98837.00
2023-03-20T19:12:57.363Z,98836.00
2023-03-20T19:15:26.426Z,98836.00
2023-03-20T19:17:53.870Z,98837.00
2023-03-20T19:20:29.221Z,98836.00
2023-03-20T19:22:55.849Z,98840.00
2023-03-20T19:25:22.502Z,98826.00
2023-03-20T19:27:49.020Z,98833.00
2023-03-20T19:30:33.448Z,98832.00
2023-03-20T19:33:00.386Z,98836.00
2023-03-20T19:35:54.629Z,98842.00
2023-03-20T19:38:17.191Z,98847.00
2023-03-20T19:40:46.549Z,98838.00
2023-03-20T19:43:13.374Z,98833.00
2023-03-20T19:45:43.000Z,98837.00
2023-03-20T19:51:21.465Z,98841.00
2023-03-20T19:53:49.026Z,98829.00
2023-03-20T19:56:16.976Z,98827.00
2023-03-20T19:58:44.436Z,98831.00
2023-03-20T20:01:16.795Z,98829.00
2023-03-20T20:03:44.504Z,98836.00
2023-03-20T20:06:10.990Z,98831.00
2023-03-20T20:08:49.149Z,98830.00
2023-03-20T20:11:17.433Z,98827.00
2023-03-20T20:16:32.484Z,98830.00
2023-03-20T20:18:59.038Z,98827.00
2023-03-20T20:22:13.187Z,98827.00
2023-03-20T20:24:12.606Z,98836.00
2023-03-20T20:26:47.933Z,98827.00
2023-03-20T20:29:20.278Z,98831.00
2023-03-20T20:31:46.888Z,98843.00
2023-03-20T20:37:42.742Z,98832.00
2023-03-20T20:39:48.041Z,98838.00
2023-03-20T20:42:15.037Z,98839.00
2023-03-20T20:44:41.621Z,98827.00
2023-03-20T20:47:08.926Z,98832.00
2023-03-20T20:49:35.872Z,98831.00
2023-03-20T20:52:02.546Z,98829.00
2023-03-20T20:54:29.209Z,98833.00
2023-03-20T20:56:56.154Z,98834.00
2023-03-20T20:59:23.201Z,98842.00
2023-03-20T21:01:50.604Z,98839.00
2023-03-20T21:04:17.774Z,98839.00
2023-03-20T21:07:08.764Z,98839.00
2023-03-20T21:09:31.164Z,98833.00
2023-03-20T21:11:57.793Z,98822.00
2023-03-20T21:14:24.319Z,98824.00
2023-03-20T21:16:50.834Z,98831.00
2023-03-20T21:19:17.461Z,98823.00
2023-03-20T21:21:43.971Z,98819.00
2023-03-20T21:24:30.851Z,98818.00
2023-03-20T21:26:59.725Z,98814.00
2023-03-20T21:29:26.669Z,98822.00
2023-03-20T21:31:53.537Z,98822.00
2023-03-20T21:34:20.701Z,98824.00
2023-03-20T21:36:49.128Z,98826.00
2023-03-20T21:39:17.163Z,98822.00
2023-03-20T21:41:43.877Z,98825.00
2023-03-20T21:44:16.768Z,98826.00
2023-03-20T21:47:33.095Z,98831.00
2023-03-20T21:55:57.557Z,98826.00
2023-03-20T22:04:02.901Z,98827.00
2023-03-20T22:09:52.218Z,98828.00
2023-03-20T22:12:30.264Z,98824.00
2023-03-20T22:23:41.117Z,98819.00
2023-03-20T22:26:38.109Z,98819.00
2023-03-20T22:31:55.285Z,98821.00
2023-03-20T22:40:22.860Z,98812.00
2023-03-20T22:42:51.166Z,98811.00
2023-03-20T22:45:13.987Z,98806.00
2023-03-20T22:47:40.765Z,98812.00
2023-03-20T22:50:07.812Z,98810.00
2023-03-20T22:52:47.999Z,98809.00
2023-03-20T22:55:16.680Z,98806.00
2023-03-20T22:57:53.002Z,98813.00
2023-03-20T23:00:27.130Z,98808.00
2023-03-20T23:02:57.357Z,98797.00
2023-03-20T23:05:27.045Z,98809.00
2023-03-20T23:07:53.564Z,98811.00
2023-03-20T23:10:23.700Z,98812.00
2023-03-20T23:12:50.331Z,98805.00
2023-03-20T23:15:16.953Z,98810.00
2023-03-20T23:17:43.419Z,98806.00
2023-03-20T23:20:13.329Z,98804.00
2023-03-20T23:22:42.721Z,98807.00
2023-03-20T23:25:18.637Z,98800.00
2023-03-20T23:27:54.019Z,98804.00
2023-03-20T23:30:23.398Z,98785.00
2023-03-20T23:32:51.931Z,98795.00
2023-03-20T23:35:18.660Z,98788.00
2023-03-20T23:37:45.190Z,98798.00
2023-03-20T23:40:12.209Z,98792.00
2023-03-20T23:42:38.749Z,98786.00
2023-03-20T23:45:19.167Z,98782.00
2023-03-20T23:47:46.553Z,98783.00
2023-03-20T23:50:20.689Z,98774.00
2023-03-20T23:52:59.189Z,98782.00
2023-03-20T23:55:30.521Z,98765.00
2023-03-20T23:57:57.188Z,98778.00
